createdAt,value
2023-03-29T00:01:35.670Z,101694.66
2023-03-29T00:04:04.723Z,101695.16
2023-03-29T00:06:33.091Z,101695.97
2023-03-29T00:09:00.124Z,101688.19
2023-03-29T00:11:27.250Z,101694.78
2023-03-29T00:13:54.107Z,101699.19
2023-03-29T00:16:20.709Z,101694.28
2023-03-29T00:18:47.192Z,101691.69
2023-03-29T00:21:13.817Z,101693.28
2023-03-29T00:23:44.142Z,101685.19
2023-03-29T00:26:11.677Z,101681.38
2023-03-29T00:28:38.197Z,101677.88
2023-03-29T00:31:13.618Z,101671.94
2023-03-29T00:33:40.524Z,101658.75
2023-03-29T00:36:08.756Z,101659.53
2023-03-29T00:38:36.068Z,101647.44
2023-03-29T00:41:04.408Z,101652.84
2023-03-29T00:43:31.074Z,101655.63
2023-03-29T00:45:57.556Z,101655.34
2023-03-29T00:48:27.889Z,101643.94
2023-03-29T00:50:58.828Z,101648.75
2023-03-29T00:53:28.267Z,101643.06
2023-03-29T00:56:07.721Z,101636.09
2023-03-29T00:58:42.140Z,101640.06
2023-03-29T01:01:15.575Z,101625.56
2023-03-29T01:03:54.100Z,101617.69
2023-03-29T01:06:25.028Z,101611.69
2023-03-29T01:08:57.083Z,101611.91
2023-03-29T01:11:34.358Z,101605.13
2023-03-29T01:14:05.513Z,101610.00
2023-03-29T01:16:36.021Z,101608.41
2023-03-29T01:19:03.669Z,101601.63
2023-03-29T01:21:33.431Z,101591.16
2023-03-29T01:24:06.632Z,101591.16
2023-03-29T01:26:51.944Z,101608.59
2023-03-29T01:29:25.846Z,101596.72
2023-03-29T01:32:01.783Z,101605.59
2023-03-29T01:34:37.670Z,101597.50
2023-03-29T01:37:15.688Z,101594.25
2023-03-29T01:39:42.129Z,101592.63
2023-03-29T01:42:36.873Z,101601.50
2023-03-29T01:45:28.496Z,101593.31
2023-03-29T01:47:55.087Z,101589.22
2023-03-29T01:50:47.239Z,101582.72
2023-03-29T01:53:28.520Z,101570.34
2023-03-29T01:56:00.379Z,101573.25
2023-03-29T01:58:33.716Z,101582.44
2023-03-29T02:01:05.601Z,101573.44
2023-03-29T02:03:34.781Z,101577.41
2023-03-29T02:06:03.290Z,101571.03
2023-03-29T02:08:30.459Z,101568.53
2023-03-29T02:10:56.983Z,101567.22
2023-03-29T02:13:23.419Z,101567.13
2023-03-29T02:15:49.950Z,101563.91
2023-03-29T02:18:17.715Z,101556.63
2023-03-29T02:20:48.864Z,101552.84
2023-03-29T02:23:24.265Z,101545.84
2023-03-29T02:25:56.925Z,101547.16
2023-03-29T02:28:25.582Z,101544.13
2023-03-29T02:30:53.509Z,101540.03
2023-03-29T02:34:03.508Z,101542.66
2023-03-29T02:36:41.710Z,101538.56
2023-03-29T02:39:10.454Z,101541.75
2023-03-29T02:41:38.759Z,101537.34
2023-03-29T02:44:08.239Z,101522.72
2023-03-29T02:46:35.389Z,101530.72
2023-03-29T02:49:02.027Z,101521.22
2023-03-29T02:51:32.443Z,101515.81
2023-03-29T02:54:15.393Z,101523.81
2023-03-29T02:56:43.345Z,101517.09
2023-03-29T02:59:09.928Z,101513.19
2023-03-29T03:01:36.930Z,101523.97
2023-03-29T03:04:03.626Z,101515.59
2023-03-29T03:06:30.120Z,101501.81
2023-03-29T03:08:56.720Z,101511.50
2023-03-29T03:11:23.903Z,101503.56
2023-03-29T03:13:50.370Z,101500.88
2023-03-29T03:16:16.997Z,101496.75
2023-03-29T03:18:45.978Z,101494.56
2023-03-29T03:21:13.334Z,101493.63
2023-03-29T03:23:40.400Z,101483.81
2023-03-29T03:26:08.620Z,101487.59
2023-03-29T03:28:35.200Z,101489.81
2023-03-29T03:31:01.905Z,101486.31
2023-03-29T03:33:29.173Z,101484.25
2023-03-29T03:36:06.206Z,101490.03
2023-03-29T03:38:33.427Z,101475.41
2023-03-29T03:41:01.193Z,101477.31
2023-03-29T03:43:28.831Z,101484.91
2023-03-29T03:45:56.473Z,101479.50
2023-03-29T03:48:24.777Z,101478.72
2023-03-29T03:50:53.943Z,101476.22
2023-03-29T03:53:21.220Z,101488.91
2023-03-29T03:55:52.617Z,101493.53
2023-03-29T03:58:19.177Z,101494.91
2023-03-29T04:00:48.640Z,101494.63
2023-03-29T04:03:15.606Z,101494.91
2023-03-29T04:05:44.616Z,101497.31
2023-03-29T04:08:12.548Z,101487.31
2023-03-29T04:10:39.531Z,101495.09
2023-03-29T04:13:06.464Z,101489.41
2023-03-29T04:15:34.353Z,101479.41
2023-03-29T04:18:01.026Z,101481.47
2023-03-29T04:20:27.698Z,101484.69
2023-03-29T04:22:54.264Z,101474.47
2023-03-29T04:25:22.277Z,101476.38
2023-03-29T04:27:50.387Z,101467.97
2023-03-29T04:30:17.108Z,101471.66
2023-03-29T04:32:43.595Z,101462.44
2023-03-29T04:35:10.587Z,101456.41
2023-03-29T04:37:40.250Z,101456.94
2023-03-29T04:40:14.933Z,101444.81
2023-03-29T04:42:44.656Z,101449.13
2023-03-29T04:45:13.998Z,101448.63
2023-03-29T04:47:41.976Z,101450.72
2023-03-29T04:50:08.938Z,101447.41
2023-03-29T04:52:35.515Z,101440.72
2023-03-29T04:55:02.812Z,101452.31
2023-03-29T04:57:29.530Z,101451.38
2023-03-29T04:59:56.538Z,101445.66
2023-03-29T05:02:23.394Z,101445.84
2023-03-29T05:04:50.454Z,101441.38
2023-03-29T05:07:18.158Z,101445.34
2023-03-29T05:09:44.662Z,101442.38
2023-03-29T05:12:11.141Z,101437.25
2023-03-29T05:14:37.607Z,101440.16
2023-03-29T05:17:05.141Z,101439.34
2023-03-29T05:19:31.998Z,101438.72
2023-03-29T05:21:59.080Z,101440.94
2023-03-29T05:24:25.790Z,101440.94
2023-03-29T05:26:52.395Z,101447.94
2023-03-29T05:29:19.275Z,101434.09
2023-03-29T05:31:47.093Z,101443.00
2023-03-29T05:34:13.762Z,101445.53
2023-03-29T05:36:40.421Z,101449.19
2023-03-29T05:39:07.344Z,101445.91
2023-03-29T05:41:34.546Z,101447.50
2023-03-29T05:44:01.525Z,101447.81
2023-03-29T05:46:28.297Z,101456.69
2023-03-29T05:48:54.868Z,101454.47
2023-03-29T05:51:24.229Z,101447.97
2023-03-29T05:53:52.040Z,101446.84
2023-03-29T05:56:19.062Z,101444.94
2023-03-29T05:58:49.445Z,101452.94
2023-03-29T06:01:17.989Z,101448.00
2023-03-29T06:03:46.337Z,101454.06
2023-03-29T06:06:16.173Z,101452.31
2023-03-29T06:08:44.026Z,101453.13
2023-03-29T06:11:12.139Z,101454.72
2023-03-29T06:13:39.024Z,101451.69
2023-03-29T06:16:10.264Z,101458.72
2023-03-29T06:18:40.131Z,101462.06
2023-03-29T06:21:09.177Z,101454.94
2023-03-29T06:23:36.455Z,101463.31
2023-03-29T06:26:03.542Z,101463.19
2023-03-29T06:28:30.582Z,101456.34
2023-03-29T06:31:02.543Z,101459.44
2023-03-29T06:33:30.624Z,101457.38
2023-03-29T06:35:57.553Z,101454.84
2023-03-29T06:38:26.346Z,101461.84
2023-03-29T06:41:00.535Z,101466.28
2023-03-29T06:43:27.266Z,101462.78
2023-03-29T06:45:54.500Z,101463.25
2023-03-29T06:48:21.368Z,101463.13
2023-03-29T06:50:48.876Z,101472.97
2023-03-29T06:53:18.472Z,101461.72
2023-03-29T06:55:45.676Z,101460.91
2023-03-29T06:58:12.351Z,101460.13
2023-03-29T07:00:39.426Z,101467.28
2023-03-29T07:03:08.148Z,101469.38
2023-03-29T07:05:36.540Z,101465.72
2023-03-29T07:08:13.739Z,101476.06
2023-03-29T07:10:43.276Z,101474.78
2023-03-29T07:13:15.448Z,101472.88
2023-03-29T07:15:43.262Z,101474.63
2023-03-29T07:18:10.304Z,101463.81
2023-03-29T07:20:38.793Z,101470.66
2023-03-29T07:23:06.762Z,101475.88
2023-03-29T07:25:34.044Z,101473.81
2023-03-29T07:28:00.570Z,101473.50
2023-03-29T07:30:31.667Z,101473.81
2023-03-29T07:32:59.102Z,101477.00
2023-03-29T07:35:26.839Z,101476.38
2023-03-29T07:37:54.961Z,101480.31
2023-03-29T07:40:23.682Z,101475.69
2023-03-29T07:42:53.821Z,101486.53
2023-03-29T07:45:26.637Z,101486.34
2023-03-29T07:47:57.744Z,101494.47
2023-03-29T07:50:24.721Z,101487.94
2023-03-29T07:52:51.333Z,101484.75
2023-03-29T07:55:18.475Z,101483.94
2023-03-29T07:57:44.928Z,101479.50
2023-03-29T08:00:16.275Z,101481.06
2023-03-29T08:02:44.867Z,101483.91
2023-03-29T08:05:16.275Z,101481.84
2023-03-29T08:07:46.807Z,101482.00
2023-03-29T08:10:15.850Z,101486.00
2023-03-29T08:12:43.154Z,101485.50
2023-03-29T08:15:10.790Z,101484.22
2023-03-29T08:17:37.941Z,101473.84
2023-03-29T08:20:06.150Z,101477.63
2023-03-29T08:22:33.407Z,101478.91
2023-03-29T08:25:00.022Z,101473.44
2023-03-29T08:27:26.626Z,101469.91
2023-03-29T08:29:53.145Z,101468.94
2023-03-29T08:32:19.671Z,101467.94
2023-03-29T08:34:46.872Z,101469.84
2023-03-29T08:37:14.842Z,101460.28
2023-03-29T08:39:41.418Z,101465.38
2023-03-29T08:42:14.051Z,101466.00
2023-03-29T08:44:57.978Z,101457.56
2023-03-29T08:47:46.691Z,101462.78
2023-03-29T08:50:14.656Z,101466.22
2023-03-29T08:52:53.534Z,101463.84
2023-03-29T08:55:38.165Z,101469.41
2023-03-29T08:58:08.201Z,101470.84
2023-03-29T09:00:54.022Z,101468.41
2023-03-29T09:03:34.557Z,101474.31
2023-03-29T09:06:15.346Z,101465.97
2023-03-29T09:08:47.854Z,101469.63
2023-03-29T09:11:23.561Z,101469.41
2023-03-29T09:14:29.138Z,101471.00
2023-03-29T09:17:07.418Z,101481.84
2023-03-29T09:20:01.309Z,101466.84
2023-03-29T09:22:41.396Z,101471.22
2023-03-29T09:25:10.984Z,101473.94
2023-03-29T09:28:29.952Z,101472.03
2023-03-29T09:31:21.703Z,101480.03
2023-03-29T09:34:08.987Z,101475.41
2023-03-29T09:36:56.748Z,101478.13
2023-03-29T09:39:26.365Z,101477.00
2023-03-29T09:42:04.197Z,101478.38
2023-03-29T09:44:38.952Z,101477.72
2023-03-29T09:47:18.547Z,101474.34
2023-03-29T09:49:49.688Z,101474.66
2023-03-29T09:52:18.217Z,101477.53
2023-03-29T09:54:44.741Z,101478.59
2023-03-29T09:57:15.617Z,101480.13
2023-03-29T09:59:44.512Z,101474.63
2023-03-29T10:02:12.994Z,101463.53
2023-03-29T10:04:42.088Z,101474.31
2023-03-29T10:07:16.029Z,101476.84
2023-03-29T10:09:45.510Z,101477.13
2023-03-29T10:12:13.747Z,101476.16
2023-03-29T10:14:46.491Z,101477.97
2023-03-29T10:17:26.489Z,101478.44
2023-03-29T10:19:58.152Z,101471.63
2023-03-29T10:22:27.758Z,101470.97
2023-03-29T10:24:57.164Z,101470.38
2023-03-29T10:27:29.148Z,101465.63
2023-03-29T10:29:58.325Z,101454.16
2023-03-29T10:32:33.411Z,101463.88
2023-03-29T10:35:10.770Z,101456.69
2023-03-29T10:37:51.028Z,101446.91
2023-03-29T10:40:26.486Z,101441.88
2023-03-29T10:42:53.968Z,101452.19
2023-03-29T10:45:27.130Z,101450.84
2023-03-29T10:47:56.938Z,101445.97
2023-03-29T10:50:23.666Z,101441.41
2023-03-29T10:52:51.019Z,101450.91
2023-03-29T10:55:18.749Z,101448.38
2023-03-29T10:57:57.366Z,101435.75
2023-03-29T11:00:34.622Z,101432.13
2023-03-29T11:03:33.233Z,101423.44
2023-03-29T11:06:11.884Z,101420.00
2023-03-29T11:08:44.033Z,101413.78
2023-03-29T11:11:19.830Z,101412.53
2023-03-29T11:14:21.963Z,101417.97
2023-03-29T11:17:25.003Z,101419.66
2023-03-29T11:20:22.393Z,101406.66
2023-03-29T11:23:16.404Z,101412.00
2023-03-29T11:25:53.244Z,101415.50
2023-03-29T11:28:35.302Z,101416.16
2023-03-29T11:31:04.854Z,101408.94
2023-03-29T11:33:48.133Z,101403.06
2023-03-29T11:36:23.992Z,101396.34
2023-03-29T11:39:12.305Z,101408.69
2023-03-29T11:41:42.530Z,101413.91
2023-03-29T11:44:19.384Z,101407.47
2023-03-29T11:46:54.594Z,101412.91
2023-03-29T11:49:26.500Z,101417.97
2023-03-29T11:52:08.415Z,101422.53
2023-03-29T11:54:48.772Z,101415.16
2023-03-29T11:57:38.365Z,101428.66
2023-03-29T12:00:19.566Z,101422.72
2023-03-29T12:02:47.875Z,101421.94
2023-03-29T12:05:30.525Z,101423.31
2023-03-29T12:08:04.563Z,101420.69
2023-03-29T12:10:36.140Z,101423.91
2023-03-29T12:13:07.326Z,101418.91
2023-03-29T12:15:58.766Z,101416.66
2023-03-29T12:18:31.927Z,101409.63
2023-03-29T12:21:06.839Z,101417.78
2023-03-29T12:23:34.034Z,101415.94
2023-03-29T12:26:30.250Z,101415.38
2023-03-29T12:29:09.362Z,101417.97
2023-03-29T12:31:56.254Z,101409.72
2023-03-29T12:34:37.978Z,101399.84
2023-03-29T12:37:31.100Z,101399.16
2023-03-29T12:40:10.632Z,101392.63
2023-03-29T12:42:45.456Z,101393.53
2023-03-29T12:45:19.978Z,101393.19
2023-03-29T12:47:48.861Z,101389.00
2023-03-29T12:50:25.537Z,101382.56
2023-03-29T12:52:52.099Z,101376.56
2023-03-29T12:55:31.490Z,101362.63
2023-03-29T12:58:08.352Z,101359.69
2023-03-29T13:00:42.134Z,101343.00
2023-03-29T13:03:45.152Z,101333.22
2023-03-29T13:06:13.408Z,101322.50
2023-03-29T13:08:44.763Z,101327.81
2023-03-29T13:11:34.776Z,101329.28
2023-03-29T13:14:11.616Z,101325.19
2023-03-29T13:16:40.574Z,101320.84
2023-03-29T13:19:13.849Z,101310.94
2023-03-29T13:21:59.934Z,101312.94
2023-03-29T13:24:45.149Z,101299.09
2023-03-29T13:27:18.004Z,101300.16
2023-03-29T13:30:09.137Z,101293.94
2023-03-29T13:32:57.286Z,101286.13
2023-03-29T13:35:42.516Z,101294.41
2023-03-29T13:38:26.681Z,101305.00
2023-03-29T13:40:53.122Z,101304.22
2023-03-29T13:43:19.558Z,101298.78
2023-03-29T13:46:04.040Z,101301.16
2023-03-29T13:48:36.824Z,101303.00
2023-03-29T13:51:52.842Z,101294.41
2023-03-29T13:54:36.541Z,101290.97
2023-03-29T13:57:29.405Z,101284.66
2023-03-29T14:00:17.786Z,101269.34
2023-03-29T14:02:55.005Z,101270.66
2023-03-29T14:05:35.957Z,101267.63
2023-03-29T14:08:39.736Z,101253.81
2023-03-29T14:11:08.386Z,101251.44
2023-03-29T14:13:35.129Z,101244.28
2023-03-29T14:16:12.202Z,101247.25
2023-03-29T14:18:44.639Z,101257.53
2023-03-29T14:21:13.870Z,101255.75
2023-03-29T14:23:44.977Z,101254.22
2023-03-29T14:26:21.884Z,101241.03
2023-03-29T14:28:53.508Z,101232.19
2023-03-29T14:31:23.009Z,101234.22
2023-03-29T14:33:54.474Z,101234.06
2023-03-29T14:36:22.517Z,101226.72
2023-03-29T14:38:57.900Z,101226.06
2023-03-29T14:41:30.254Z,101216.53
2023-03-29T14:43:58.309Z,101207.69
2023-03-29T14:46:25.723Z,101203.88
2023-03-29T14:48:52.701Z,101199.31
2023-03-29T14:51:20.715Z,101195.47
2023-03-29T14:53:49.277Z,101196.66
2023-03-29T14:56:18.227Z,101188.84
2023-03-29T14:58:48.903Z,101195.81
2023-03-29T15:01:23.613Z,101193.44
2023-03-29T15:03:55.245Z,101195.38
2023-03-29T15:06:24.070Z,101184.84
2023-03-29T15:09:02.058Z,101178.72
2023-03-29T15:11:31.676Z,101169.13
2023-03-29T15:14:05.073Z,101163.81
2023-03-29T15:16:32.707Z,101157.28
2023-03-29T15:19:01.777Z,101152.28
2023-03-29T15:21:34.366Z,101156.16
2023-03-29T15:24:03.230Z,101151.91
2023-03-29T15:26:35.851Z,101146.09
2023-03-29T15:29:13.011Z,101139.78
2023-03-29T15:31:41.802Z,101140.44
2023-03-29T15:34:12.791Z,101146.28
2023-03-29T15:36:47.450Z,101148.97
2023-03-29T15:39:16.242Z,101151.56
2023-03-29T15:41:44.949Z,101150.72
2023-03-29T15:44:14.960Z,101141.31
2023-03-29T15:46:41.848Z,101139.69
2023-03-29T15:49:12.349Z,101125.19
2023-03-29T15:51:39.978Z,101129.03
2023-03-29T15:54:07.887Z,101126.22
2023-03-29T15:56:48.063Z,101115.66
2023-03-29T15:59:14.888Z,101106.69
2023-03-29T16:01:41.841Z,101094.97
2023-03-29T16:04:14.274Z,101083.66
2023-03-29T16:06:41.338Z,101093.00
2023-03-29T16:09:08.735Z,101090.59
2023-03-29T16:11:35.400Z,101082.00
2023-03-29T16:14:01.861Z,101083.88
2023-03-29T16:16:28.692Z,101083.78
2023-03-29T16:18:55.161Z,101074.81
2023-03-29T16:21:22.814Z,101074.34
2023-03-29T16:23:49.406Z,101062.66
2023-03-29T16:26:17.023Z,101067.25
2023-03-29T16:28:43.969Z,101058.69
2023-03-29T16:31:12.488Z,101045.84
2023-03-29T16:33:42.250Z,101046.19
2023-03-29T16:36:10.279Z,101034.13
2023-03-29T16:38:37.070Z,101021.28
2023-03-29T16:41:03.860Z,101021.66
2023-03-29T16:43:30.503Z,101018.78
2023-03-29T16:45:57.436Z,101007.47
2023-03-29T16:48:23.984Z,100999.66
2023-03-29T16:50:50.709Z,100989.53
2023-03-29T16:53:19.662Z,101014.81
2023-03-29T16:55:47.240Z,101008.56
2023-03-29T16:58:15.419Z,101012.47
2023-03-29T17:00:43.061Z,101012.88
2023-03-29T17:03:11.035Z,101010.84
2023-03-29T17:05:41.388Z,101002.25
2023-03-29T17:08:10.013Z,101010.84
2023-03-29T17:10:39.375Z,100986.69
2023-03-29T17:13:05.859Z,100993.69
2023-03-29T17:15:32.446Z,100996.88
2023-03-29T17:17:59.088Z,100980.50
2023-03-29T17:20:25.735Z,100988.63
2023-03-29T17:22:55.283Z,100984.69
2023-03-29T17:25:23.060Z,100983.81
2023-03-29T17:27:49.982Z,100976.00
2023-03-29T17:30:16.713Z,100968.56
2023-03-29T17:32:43.275Z,100961.97
2023-03-29T17:35:10.692Z,100969.34
2023-03-29T17:37:37.425Z,100963.06
2023-03-29T17:40:13.551Z,100956.00
2023-03-29T17:42:41.086Z,100958.31
2023-03-29T17:45:08.816Z,100957.50
2023-03-29T17:47:35.460Z,100949.59
2023-03-29T17:50:02.056Z,100957.38
2023-03-29T17:52:28.524Z,100960.38
2023-03-29T17:54:55.358Z,100949.44
2023-03-29T17:57:22.058Z,100943.56
2023-03-29T17:59:48.553Z,100952.91
2023-03-29T18:02:21.327Z,100939.13
2023-03-29T18:04:48.608Z,100939.50
2023-03-29T18:07:15.389Z,100947.91
2023-03-29T18:09:42.129Z,100943.53
2023-03-29T18:12:08.916Z,100957.03
2023-03-29T18:14:35.838Z,100942.56
2023-03-29T18:17:02.515Z,100945.66
2023-03-29T18:19:29.024Z,100947.13
2023-03-29T18:21:56.221Z,100940.19
2023-03-29T18:24:22.732Z,100928.50
2023-03-29T18:26:49.191Z,100934.31
2023-03-29T18:29:15.850Z,100926.84
2023-03-29T18:31:43.623Z,100917.84
2023-03-29T18:34:10.240Z,100928.66
2023-03-29T18:36:37.175Z,100923.81
2023-03-29T18:39:06.897Z,100926.44
2023-03-29T18:41:35.583Z,100921.56
2023-03-29T18:44:02.143Z,100921.44
2023-03-29T18:46:31.371Z,100926.00
2023-03-29T18:48:59.181Z,100919.34
2023-03-29T18:51:28.027Z,100920.13
2023-03-29T18:53:55.881Z,100920.84
2023-03-29T18:56:22.806Z,100924.72
2023-03-29T18:58:49.348Z,100922.34
2023-03-29T19:01:16.248Z,100916.56
2023-03-29T19:03:43.075Z,100919.28
2023-03-29T19:06:09.894Z,100919.69
2023-03-29T19:08:38.708Z,100923.22
2023-03-29T19:11:07.338Z,100913.91
2023-03-29T19:13:34.995Z,100926.72
2023-03-29T19:16:01.695Z,100909.59
2023-03-29T19:18:28.430Z,100904.56
2023-03-29T19:20:55.133Z,100912.03
2023-03-29T19:23:25.926Z,100902.28
2023-03-29T19:25:55.935Z,100897.97
2023-03-29T19:28:23.734Z,100896.41
2023-03-29T19:30:50.395Z,100897.19
2023-03-29T19:33:17.328Z,100896.41
2023-03-29T19:35:44.602Z,100890.19
2023-03-29T19:38:11.155Z,100880.44
2023-03-29T19:40:37.784Z,100877.34
2023-03-29T19:43:04.902Z,100865.63
2023-03-29T19:45:31.408Z,100855.53
2023-03-29T19:48:03.004Z,100854.28
2023-03-29T19:50:31.563Z,100841.13
2023-03-29T19:52:58.472Z,100835.22
2023-03-29T19:55:25.388Z,100837.91
2023-03-29T19:57:52.322Z,100835.53
2023-03-29T20:00:19.197Z,100838.53
2023-03-29T20:02:45.734Z,100834.66
2023-03-29T20:05:12.498Z,100822.94
2023-03-29T20:07:39.086Z,100818.34
2023-03-29T20:10:06.122Z,100807.91
2023-03-29T20:12:32.615Z,100807.44
2023-03-29T20:14:59.027Z,100802.78
2023-03-29T20:17:25.676Z,100796.94
2023-03-29T20:19:53.893Z,100799.28
2023-03-29T20:22:20.411Z,100795.00
2023-03-29T20:24:47.184Z,100798.88
2023-03-29T20:27:13.882Z,100792.28
2023-03-29T20:29:40.363Z,100786.03
2023-03-29T20:32:07.064Z,100777.47
2023-03-29T20:34:33.644Z,100770.13
2023-03-29T20:37:02.095Z,100772.84
2023-03-29T20:39:29.630Z,100764.69
2023-03-29T20:41:56.105Z,100754.59
2023-03-29T20:44:26.229Z,100746.13
2023-03-29T20:47:08.440Z,100733.69
2023-03-29T20:49:39.213Z,100739.91
2023-03-29T20:52:10.621Z,100730.53
2023-03-29T20:54:37.304Z,100728.19
2023-03-29T20:57:04.928Z,100722.75
2023-03-29T20:59:31.523Z,100714.59
2023-03-29T21:02:00.081Z,100712.66
2023-03-29T21:04:27.755Z,100713.44
2023-03-29T21:06:54.275Z,100718.44
2023-03-29T21:09:22.102Z,100711.41
2023-03-29T21:11:49.460Z,100702.88
2023-03-29T21:14:19.575Z,100699.31
2023-03-29T21:16:49.690Z,100702.41
2023-03-29T21:19:16.712Z,100697.25
2023-03-29T21:21:44.866Z,100710.50
2023-03-29T21:24:13.457Z,100700.34
2023-03-29T21:26:41.088Z,100697.63
2023-03-29T21:29:07.823Z,100694.91
2023-03-29T21:31:34.441Z,100692.50
2023-03-29T21:34:00.959Z,100681.16
2023-03-29T21:36:27.518Z,100678.44
2023-03-29T21:38:54.057Z,100678.81
2023-03-29T21:41:20.735Z,100676.09
2023-03-29T21:43:48.046Z,100672.59
2023-03-29T21:46:15.515Z,100670.97
2023-03-29T21:48:42.058Z,100666.22
2023-03-29T21:51:09.274Z,100661.19
2023-03-29T21:53:36.173Z,100662.72
2023-03-29T21:56:03.126Z,100654.16
2023-03-29T21:58:30.760Z,100652.56
2023-03-29T22:00:57.292Z,100650.63
2023-03-29T22:03:23.973Z,100640.03
2023-03-29T22:06:02.594Z,100647.78
2023-03-29T22:08:29.970Z,100643.50
2023-03-29T22:10:57.442Z,100647.41
2023-03-29T22:13:28.400Z,100635.06
2023-03-29T22:15:59.474Z,100634.25
2023-03-29T22:18:42.271Z,100633.91
2023-03-29T22:21:31.028Z,100645.97
2023-03-29T22:23:59.499Z,100637.47
2023-03-29T22:26:29.202Z,100645.66
2023-03-29T22:28:56.736Z,100636.72
2023-03-29T22:31:25.042Z,100638.66
2023-03-29T22:33:51.618Z,100634.38
2023-03-29T22:36:23.377Z,100638.66
2023-03-29T22:38:51.143Z,100641.75
2023-03-29T22:41:18.933Z,100634.38
2023-03-29T22:43:45.445Z,100632.88
2023-03-29T22:46:13.892Z,100633.66
2023-03-29T22:48:41.216Z,100633.22
2023-03-29T22:51:07.769Z,100623.91
2023-03-29T22:53:34.860Z,100621.91
2023-03-29T22:56:01.340Z,100619.97
2023-03-29T22:58:29.377Z,100618.84
2023-03-29T23:00:57.117Z,100620.47
2023-03-29T23:03:23.982Z,100618.19
2023-03-29T23:05:52.273Z,100612.00
2023-03-29T23:08:19.101Z,100606.13
2023-03-29T23:10:46.564Z,100611.16
2023-03-29T23:13:20.558Z,100613.94
2023-03-29T23:15:48.712Z,100601.91
2023-03-29T23:18:18.198Z,100600.00
2023-03-29T23:20:44.676Z,100595.34
2023-03-29T23:23:11.143Z,100599.53
2023-03-29T23:25:37.584Z,100594.19
2023-03-29T23:28:04.298Z,100594.97
2023-03-29T23:30:31.023Z,100596.13
2023-03-29T23:32:58.227Z,100591.88
2023-03-29T23:35:24.837Z,100583.34
2023-03-29T23:37:51.301Z,100576.75
2023-03-29T23:40:17.831Z,100562.34
2023-03-29T23:42:46.361Z,100572.41
2023-03-29T23:45:15.865Z,100577.13
2023-03-29T23:47:43.981Z,100577.91
2023-03-29T23:50:13.420Z,100588.00
2023-03-29T23:52:41.542Z,100584.88
2023-03-29T23:55:12.498Z,100584.50
2023-03-29T23:57:38.980Z,100578.63
